Time;durP1;ratioP1;P1;durP2;ratioP2;P2;SDS_P1;SDS_P2;PMS_P1;PMS_P2;Temp;Humidity;BMP_temperature;BMP_pressure;BME280_temperature;BME280_humidity;BME280_pressure;Samples;Min_cycle;Max_cycle;Signal;HPM_P1;HPM_P2
2022/01/25 00:10:15;;;;;;;13.88;6.38;;;;;;;-8.52;73.82;96010.34;5073662;28;20226;-73
2022/01/25 00:24:16;;;;;;;15.48;8.23;;;;;;;-8.46;74.34;96009.63;5019805;28;20203;-73
2022/01/25 00:24:29;;;;;;;18.88;9.15;;;;;;;-8.37;74.48;96019.09;5079690;28;20666;-73
2022/01/25 00:27:10;;;;;;;4.22;2.22;;;;;;;-8.27;73.55;96030.16;5074176;28;20258;-72
2022/01/25 00:29:55;;;;;;;8.98;4.50;;;;;;;-8.25;74.01;96028.19;5077525;28;20202;-73
2022/01/25 00:32:24;;;;;;;15.85;7.80;;;;;;;-8.20;73.63;96028.47;5081041;28;20195;-73
2022/01/25 00:34:51;;;;;;;13.88;7.05;;;;;;;-8.19;73.34;96022.19;5072926;28;20206;-73
2022/01/25 00:37:19;;;;;;;15.02;7.95;;;;;;;-8.16;73.79;96021.84;5072683;28;20222;-74
2022/01/25 00:39:47;;;;;;;9.40;2.60;;;;;;;-8.13;73.05;96023.31;5072491;28;20234;-72
2022/01/25 00:42:13;;;;;;;14.35;8.18;;;;;;;-8.24;73.49;96019.31;5073021;28;20418;-71
2022/01/25 00:44:45;;;;;;;15.68;7.40;;;;;;;-8.30;73.67;96026.06;5072790;28;20223;-73
2022/01/25 00:47:15;;;;;;;4.82;2.25;;;;;;;-8.18;74.01;96023.84;5073171;28;20229;-73
2022/01/25 00:49:46;;;;;;;14.65;8.27;;;;;;;-8.18;73.99;96015.94;5073248;28;20264;-73
2022/01/25 00:52:24;;;;;;;16.33;7.75;;;;;;;-8.26;74.24;96016.03;5072997;28;20229;-73
2022/01/25 00:54:51;;;;;;;13.73;7.43;;;;;;;-8.25;74.82;96012.41;5072705;28;20223;-73
2022/01/25 00:57:19;;;;;;;15.85;7.85;;;;;;;-8.29;74.36;96016.38;5072589;28;20669;-73
2022/01/25 00:59:47;;;;;;;6.78;2.30;;;;;;;-8.31;74.35;96015.72;5072115;28;20241;-73
2022/01/25 01:02:16;;;;;;;6.60;2.08;;;;;;;-8.21;74.78;96018.13;5086408;28;20207;-73
2022/01/25 01:04:44;;;;;;;3.53;2.15;;;;;;;-8.27;75.00;96011.75;5072506;28;20203;-73
2022/01/25 01:07:14;;;;;;;3.60;1.83;;;;;;;-8.14;73.83;96014.59;5072891;28;20195;-74
2022/01/25 01:09:44;;;;;;;4.40;1.67;;;;;;;-8.05;74.50;96008.28;5072725;28;20235;-74
2022/01/25 01:12:18;;;;;;;12.93;7.22;;;;;;;-8.05;74.28;96013.53;5059682;28;20585;-73
2022/01/25 01:15:04;;;;;;;16.10;7.53;;;;;;;-8.15;73.89;96006.91;5072287;28;20206;-72
2022/01/25 01:31:21;;;;;;;7.22;2.90;;;;;;;-8.01;75.43;95991.16;5071325;28;20293;-74
2022/01/25 01:34:15;;;;;;;3.80;2.45;;;;;;;-7.98;74.49;95992.63;5072011;28;20716;-73
2022/01/25 01:40:01;;;;;;;13.30;6.60;;;;;;;-8.12;74.27;95991.59;5070688;28;20221;-74
2022/01/25 01:42:53;;;;;;;9.60;3.95;;;;;;;-8.12;73.66;95991.59;5074761;28;20219;-73
2022/01/25 01:45:38;;;;;;;16.13;8.52;;;;;;;-8.15;74.34;95985.88;5070689;28;20223;-73
2022/01/25 01:48:08;;;;;;;9.75;5.00;;;;;;;-8.18;73.78;95994.91;5060537;28;20241;-73
2022/01/25 01:50:37;;;;;;;5.68;3.33;;;;;;;-8.03;74.64;95995.78;5071521;28;20191;-73
2022/01/25 01:53:07;;;;;;;5.28;2.13;;;;;;;-8.13;73.68;95995.22;5071342;28;20230;-73
2022/01/25 01:55:35;;;;;;;2.25;1.58;;;;;;;-8.18;74.11;95997.56;5070732;28;20692;-72
2022/01/25 01:58:04;;;;;;;14.73;6.88;;;;;;;-8.11;74.45;95981.91;5070870;28;20249;-74
2022/01/25 02:00:35;;;;;;;14.93;7.28;;;;;;;-7.98;74.42;95975.03;5075394;28;20279;-73
2022/01/25 02:03:03;;;;;;;12.50;6.45;;;;;;;-8.06;74.00;95975.09;5079827;28;20214;-73
2022/01/25 02:05:31;;;;;;;13.02;6.82;;;;;;;-8.16;74.28;95963.22;5071585;28;20661;-74
2022/01/25 02:07:59;;;;;;;10.43;4.05;;;;;;;-8.05;73.76;95962.78;5071004;28;20210;-72
2022/01/25 02:10:27;;;;;;;12.30;6.70;;;;;;;-8.10;73.69;95963.34;5070655;28;20234;-73
2022/01/25 02:12:54;;;;;;;15.52;8.25;;;;;;;-8.24;74.42;95972.00;5071167;28;20199;-73
2022/01/25 02:15:24;;;;;;;15.48;6.10;;;;;;;-8.09;75.00;95964.97;5071117;28;20207;-73
2022/01/25 02:22:21;;;;;;;9.70;5.60;;;;;;;-8.15;75.35;95960.41;5071249;28;20242;-75
2022/01/25 02:23:29;;;;;;;3.67;2.17;;;;;;;-8.21;75.86;95955.06;5071288;28;20324;-73
2022/01/25 02:25:58;;;;;;;13.63;7.80;;;;;;;-8.38;75.82;95964.94;5071400;28;20202;-74
2022/01/25 02:28:27;;;;;;;15.90;7.78;;;;;;;-8.24;75.69;95956.22;5058846;28;20203;-75
2022/01/25 02:30:54;;;;;;;12.32;6.00;;;;;;;-8.19;76.17;95948.63;5071671;28;20202;-74
2022/01/25 02:33:22;;;;;;;11.68;5.75;;;;;;;-8.17;74.99;95941.38;5083530;28;20206;-73
2022/01/25 02:35:51;;;;;;;11.15;5.20;;;;;;;-8.27;75.19;95940.81;5071028;28;20597;-73
2022/01/25 02:38:21;;;;;;;15.18;7.63;;;;;;;-8.26;76.46;95942.44;5069907;28;20210;-73
2022/01/25 02:40:49;;;;;;;9.73;5.90;;;;;;;-8.28;75.74;95940.00;5070002;28;20234;-74
2022/01/25 02:43:18;;;;;;;13.68;5.32;;;;;;;-8.27;75.49;95946.06;5069694;28;20219;-73
2022/01/25 02:45:52;;;;;;;9.73;5.60;;;;;;;-8.38;74.95;95938.66;5070166;28;20585;-73
2022/01/25 02:48:30;;;;;;;13.93;6.97;;;;;;;-8.39;75.26;95931.78;5081137;28;20230;-74
2022/01/25 02:50:59;;;;;;;12.18;6.45;;;;;;;-8.51;75.41;95941.91;5072999;28;20562;-74
2022/01/25 02:53:27;;;;;;;4.88;2.42;;;;;;;-8.67;75.72;95929.72;5070797;28;20219;-74
2022/01/25 02:55:54;;;;;;;6.00;3.22;;;;;;;-8.83;76.47;95929.00;5070828;28;20689;-74
2022/01/25 02:58:21;;;;;;;10.63;4.80;;;;;;;-8.90;77.02;95934.16;5070962;28;20230;-74
2022/01/25 03:00:48;;;;;;;8.45;4.75;;;;;;;-8.97;77.24;95920.09;5071100;28;20261;-74
2022/01/25 03:03:15;;;;;;;17.00;9.45;;;;;;;-9.08;77.58;95925.75;5070520;28;20199;-74
2022/01/25 03:05:43;;;;;;;18.17;9.23;;;;;;;-9.08;77.74;95921.31;5070625;28;20207;-73
2022/01/25 03:08:15;;;;;;;14.77;7.93;;;;;;;-9.10;77.79;95927.72;5070872;28;20223;-74
2022/01/25 03:10:46;;;;;;;13.18;6.57;;;;;;;-9.18;78.38;95925.97;5070616;28;20191;-73
2022/01/25 03:13:18;;;;;;;17.00;7.03;;;;;;;-9.21;78.13;95936.00;5070524;28;20613;-73
2022/01/25 03:15:58;;;;;;;14.55;6.47;;;;;;;-9.26;78.70;95933.06;5070837;28;20195;-73
2022/01/25 03:18:43;;;;;;;22.67;10.65;;;;;;;-9.37;78.93;95927.22;5070476;28;20246;-73
2022/01/25 03:21:32;;;;;;;18.55;8.57;;;;;;;-9.41;78.98;95925.13;5071327;28;20234;-73
2022/01/25 03:24:01;;;;;;;15.40;8.55;;;;;;;-9.45;78.84;95927.28;5080374;28;20891;-73
2022/01/25 03:26:28;;;;;;;21.80;11.02;;;;;;;-9.49;78.96;95922.56;5070698;28;21010;-74
2022/01/25 03:28:55;;;;;;;18.45;10.25;;;;;;;-9.55;79.87;95924.03;5070371;28;20211;-74
2022/01/25 03:31:23;;;;;;;19.60;9.32;;;;;;;-9.57;79.79;95926.03;5070559;28;20256;-73
2022/01/25 03:33:50;;;;;;;23.13;11.77;;;;;;;-9.72;79.83;95927.75;5070036;28;20604;-73
2022/01/25 03:36:17;;;;;;;20.80;10.50;;;;;;;-9.73;80.37;95921.69;5070300;28;20325;-74
2022/01/25 03:38:44;;;;;;;22.67;9.85;;;;;;;-9.69;81.06;95927.38;5070816;28;20211;-73
2022/01/25 03:41:14;;;;;;;23.30;10.63;;;;;;;-9.62;80.14;95923.09;5070152;28;20231;-72
2022/01/25 03:43:43;;;;;;;23.02;10.20;;;;;;;-9.67;80.05;95920.16;5070748;28;20219;-72
2022/01/25 03:46:15;;;;;;;22.77;9.85;;;;;;;-9.63;80.34;95920.66;5070036;28;20215;-73
2022/01/25 03:51:26;;;;;;;21.27;10.32;;;;;;;-9.56;79.77;95906.69;5071845;28;20229;-73
2022/01/25 03:53:53;;;;;;;19.75;9.70;;;;;;;-9.54;79.48;95909.94;5074150;28;20277;-74
2022/01/25 03:56:22;;;;;;;18.85;9.52;;;;;;;-9.53;79.29;95908.97;5074044;28;20230;-73
2022/01/25 03:58:50;;;;;;;9.50;4.97;;;;;;;-9.56;78.97;95900.59;5069836;28;20302;-73
2022/01/25 04:01:17;;;;;;;22.45;10.98;;;;;;;-9.58;79.17;95908.69;5064470;28;20562;-74
2022/01/25 04:03:52;;;;;;;23.23;9.85;;;;;;;-9.51;79.42;95903.53;5074063;28;20199;-74
2022/01/25 04:06:20;;;;;;;21.52;11.30;;;;;;;-9.42;79.63;95913.81;5073607;28;20193;-74
2022/01/25 04:08:48;;;;;;;20.63;10.82;;;;;;;-9.39;78.90;95908.22;5087175;28;20724;-74
2022/01/25 04:11:15;;;;;;;19.90;10.73;;;;;;;-9.20;78.36;95898.28;5073460;28;20207;-73
2022/01/25 04:13:43;;;;;;;21.08;9.25;;;;;;;-9.21;77.83;95904.53;5073563;28;20203;-73
2022/01/25 04:16:14;;;;;;;19.73;10.93;;;;;;;-9.16;77.40;95896.97;5073010;28;20210;-73
2022/01/25 04:18:56;;;;;;;20.48;8.95;;;;;;;-9.13;77.01;95901.84;5060734;28;20239;-74
2022/01/25 04:21:40;;;;;;;15.13;7.00;;;;;;;-9.06;77.26;95881.78;5075414;28;20257;-74
2022/01/25 04:26:54;;;;;;;10.05;3.83;;;;;;;-8.90;76.58;95884.28;5061237;28;20198;-74
2022/01/25 04:29:23;;;;;;;15.13;7.00;;;;;;;-8.89;76.55;95887.75;5072858;28;20202;-73
2022/01/25 04:31:50;;;;;;;7.50;3.85;;;;;;;-9.09;76.66;95893.44;5073187;28;20210;-72
2022/01/25 04:34:37;;;;;;;12.07;7.25;;;;;;;-9.23;77.28;95880.25;5073462;28;20203;-75
2022/01/25 04:51:12;;;;;;;24.65;12.07;;;;;;;-9.61;79.08;95898.53;5072955;28;20758;-73
2022/01/25 04:53:47;;;;;;;22.17;11.40;;;;;;;-9.56;78.81;95890.94;5072365;28;20435;-74
2022/01/25 04:56:20;;;;;;;8.27;5.13;;;;;;;-9.71;78.60;95887.44;5073033;28;20226;-75
2022/01/25 04:58:53;;;;;;;14.38;7.00;;;;;;;-9.74;78.64;95898.25;5072581;28;20198;-73
2022/01/25 05:01:22;;;;;;;23.02;10.13;;;;;;;-9.83;79.09;95888.78;5072786;28;20273;-73
2022/01/25 05:03:58;;;;;;;17.52;8.88;;;;;;;-9.94;79.35;95892.59;5071545;28;20589;-74
2022/01/25 05:06:26;;;;;;;27.05;12.80;;;;;;;-10.08;79.82;95888.88;5072356;28;20282;-74
2022/01/25 05:08:56;;;;;;;22.40;9.48;;;;;;;-9.96;80.06;95889.31;5072477;28;20202;-74
2022/01/25 05:11:28;;;;;;;24.77;11.90;;;;;;;-10.00;79.94;95897.72;5072322;28;20555;-73
2022/01/25 05:14:11;;;;;;;32.70;11.65;;;;;;;-10.08;80.09;95896.75;5072684;28;20195;-74
2022/01/25 05:16:48;;;;;;;20.63;10.65;;;;;;;-10.06;80.67;95894.78;5072241;28;20188;-73
2022/01/25 05:19:36;;;;;;;31.33;14.43;;;;;;;-10.02;81.53;95897.06;5072086;28;20242;-74
2022/01/25 05:22:04;;;;;;;19.83;9.82;;;;;;;-10.37;81.09;95896.53;5068220;28;20230;-74
2022/01/25 05:24:32;;;;;;;22.95;10.27;;;;;;;-10.32;82.05;95902.09;5077203;28;20214;-73
2022/01/25 05:26:59;;;;;;;20.10;10.25;;;;;;;-10.34;81.96;95898.00;5067090;28;20207;-74
2022/01/25 05:29:26;;;;;;;20.55;9.32;;;;;;;-10.37;81.48;95885.25;5076601;28;20206;-73
2022/01/25 05:31:54;;;;;;;26.25;12.32;;;;;;;-10.43;82.25;95881.50;5090820;28;20656;-76
2022/01/25 05:34:21;;;;;;;30.50;14.98;;;;;;;-10.30;82.62;95876.56;5090705;28;20226;-73
2022/01/25 05:36:48;;;;;;;22.23;11.02;;;;;;;-10.29;82.34;95888.66;5072006;28;20207;-73
2022/01/25 05:39:18;;;;;;;32.65;16.40;;;;;;;-10.28;81.76;95884.25;5071039;28;20677;-74
2022/01/25 05:41:54;;;;;;;22.23;10.98;;;;;;;-10.25;81.29;95869.00;5070412;28;20238;-75
2022/01/25 05:44:40;;;;;;;24.45;11.85;;;;;;;-10.23;81.48;95872.28;5071214;28;20222;-75
2022/01/25 05:47:13;;;;;;;31.35;14.85;;;;;;;-10.20;81.28;95865.88;5071350;28;20264;-73
2022/01/25 05:49:40;;;;;;;33.10;15.48;;;;;;;-10.27;81.88;95857.91;5057731;28;20262;-73
2022/01/25 05:52:09;;;;;;;27.70;10.43;;;;;;;-10.30;81.27;95850.38;5070799;28;20242;-74
2022/01/25 05:54:37;;;;;;;17.63;7.70;;;;;;;-10.29;81.03;95861.66;5070607;28;20211;-74
2022/01/25 05:57:05;;;;;;;27.98;14.35;;;;;;;-10.23;81.06;95872.28;5070707;28;20483;-73
2022/01/25 05:59:32;;;;;;;23.77;11.50;;;;;;;-10.21;80.57;95857.22;5070095;28;20283;-74
2022/01/25 06:01:59;;;;;;;19.23;9.60;;;;;;;-10.27;80.41;95876.22;5071627;28;20242;-73
2022/01/25 06:04:28;;;;;;;26.48;12.82;;;;;;;-10.28;80.63;95879.00;5082260;28;20205;-74
2022/01/25 06:06:54;;;;;;;25.48;11.73;;;;;;;-10.29;80.37;95883.44;5092887;28;20229;-75
2022/01/25 06:09:24;;;;;;;22.02;11.15;;;;;;;-10.32;80.45;95868.06;5091791;28;20206;-73
2022/01/25 06:11:51;;;;;;;18.15;8.73;;;;;;;-10.31;80.01;95885.41;5090755;28;20679;-75
2022/01/25 06:14:18;;;;;;;23.50;12.48;;;;;;;-10.20;80.30;95876.34;5090538;28;20592;-73
2022/01/25 06:16:45;;;;;;;27.80;12.25;;;;;;;-10.12;79.76;95881.56;5091490;28;20217;-74
2022/01/25 06:19:12;;;;;;;34.45;15.93;;;;;;;-9.84;79.58;95874.84;5090817;28;20568;-74
2022/01/25 06:21:40;;;;;;;27.17;12.85;;;;;;;-9.94;78.62;95881.31;5085830;28;20253;-74
2022/01/25 06:24:07;;;;;;;27.15;12.48;;;;;;;-9.56;78.88;95875.22;5070239;28;20248;-74
2022/01/25 06:26:34;;;;;;;27.55;14.52;;;;;;;-9.30;77.13;95871.47;5070788;28;20211;-74
2022/01/25 06:29:01;;;;;;;20.20;9.65;;;;;;;-9.16;76.43;95866.28;5070947;28;20202;-73
2022/01/25 06:31:30;;;;;;;23.63;10.52;;;;;;;-8.93;75.57;95866.25;5075593;28;20237;-73
2022/01/25 06:33:57;;;;;;;23.08;10.68;;;;;;;-8.79;75.58;95865.50;5090978;28;20237;-74
2022/01/25 06:36:24;;;;;;;19.83;9.32;;;;;;;-8.67;74.44;95871.94;5076602;28;20215;-74
2022/01/25 06:38:52;;;;;;;19.27;9.68;;;;;;;-8.14;72.91;95877.94;5090775;28;20716;-74
2022/01/25 06:41:19;;;;;;;16.73;8.98;;;;;;;-8.69;73.86;95884.44;5070924;28;20227;-74
2022/01/25 06:43:46;;;;;;;20.45;10.05;;;;;;;-8.61;74.60;95871.22;5071147;28;20223;-73
2022/01/25 06:46:13;;;;;;;22.00;9.90;;;;;;;-8.34;73.49;95890.03;5070883;28;20207;-77
2022/01/25 06:48:40;;;;;;;23.15;10.00;;;;;;;-8.10;72.93;95878.41;5069387;28;20218;-75
2022/01/25 06:51:07;;;;;;;15.57;8.48;;;;;;;-8.27;73.07;95869.88;5090007;28;20241;-73
2022/01/25 06:53:34;;;;;;;22.67;10.98;;;;;;;-7.89;73.18;95863.53;5068579;28;20237;-74
2022/01/25 06:56:04;;;;;;;24.05;10.73;;;;;;;-7.72;72.08;95853.63;5070665;28;20219;-73
2022/01/25 06:58:31;;;;;;;4.55;2.85;;;;;;;-7.94;72.15;95863.28;5069532;28;20280;-74
2022/01/25 07:00:58;;;;;;;7.40;3.90;;;;;;;-7.64;71.98;95855.31;5058921;28;20276;-73
2022/01/25 07:03:25;;;;;;;14.13;4.28;;;;;;;-7.64;70.86;95852.69;5070493;28;20199;-75
2022/01/25 07:05:52;;;;;;;7.55;4.03;;;;;;;-7.85;71.10;95861.34;5070159;28;20314;-75
2022/01/25 07:08:18;;;;;;;11.60;6.03;;;;;;;-8.24;72.30;95866.91;5070313;28;20207;-77
2022/01/25 07:10:45;;;;;;;10.63;4.53;;;;;;;-8.06;72.22;95851.56;5070727;28;20211;-74
2022/01/25 07:13:14;;;;;;;8.20;3.30;;;;;;;-8.06;72.59;95864.69;5070514;28;20208;-75
2022/01/25 07:15:40;;;;;;;12.65;5.70;;;;;;;-8.18;73.54;95860.91;5079037;28;20202;-76
2022/01/25 07:18:07;;;;;;;10.88;4.60;;;;;;;-7.89;72.78;95862.69;5074641;28;20733;-75
2022/01/25 07:20:34;;;;;;;8.98;4.10;;;;;;;-7.76;73.06;95843.66;5069603;28;20222;-73
2022/01/25 07:23:01;;;;;;;13.40;5.85;;;;;;;-7.82;72.22;95841.75;5070063;28;20219;-75
2022/01/25 07:25:28;;;;;;;8.10;3.97;;;;;;;-7.77;72.60;95847.28;5071093;28;20199;-75
2022/01/25 07:27:55;;;;;;;12.30;7.00;;;;;;;-7.63;71.34;95846.44;5074629;28;20195;-75
2022/01/25 07:30:23;;;;;;;14.70;6.28;;;;;;;-7.53;71.21;95834.63;5074071;28;20199;-74
2022/01/25 07:32:50;;;;;;;12.30;4.35;;;;;;;-7.60;71.20;95851.31;5074328;28;20230;-75
2022/01/25 07:35:17;;;;;;;7.90;5.10;;;;;;;-7.59;70.40;95834.53;5073681;28;20203;-77
2022/01/25 07:37:44;;;;;;;13.52;6.47;;;;;;;-7.43;70.66;95839.59;5074049;28;20222;-74
2022/01/25 07:40:13;;;;;;;8.80;2.95;;;;;;;-6.91;71.07;95838.47;5073808;28;20230;-74
2022/01/25 07:42:40;;;;;;;11.35;6.00;;;;;;;-7.37;69.66;95838.00;5073689;28;20231;-75
2022/01/25 07:45:10;;;;;;;10.50;5.32;;;;;;;-7.15;70.12;95838.84;5084009;28;20700;-74
2022/01/25 07:47:39;;;;;;;11.55;6.00;;;;;;;-7.10;69.44;95844.34;5079958;28;20241;-74
2022/01/25 07:50:08;;;;;;;8.60;3.55;;;;;;;-6.86;68.67;95842.16;5082926;28;20219;-74
2022/01/25 07:52:35;;;;;;;12.23;3.30;;;;;;;-6.78;67.84;95845.66;5073414;28;20207;-75
2022/01/25 07:55:02;;;;;;;8.82;3.65;;;;;;;-6.76;68.61;95846.28;5073627;28;20218;-73
2022/01/25 07:57:29;;;;;;;17.33;4.85;;;;;;;-6.62;68.33;95843.56;5073767;28;20199;-76
2022/01/25 07:59:57;;;;;;;7.13;2.65;;;;;;;-6.90;69.13;95855.88;5073833;28;20206;-74
2022/01/25 08:02:24;;;;;;;8.35;3.42;;;;;;;-6.65;67.89;95843.13;5073718;28;20238;-75
2022/01/25 08:04:54;;;;;;;18.48;6.22;;;;;;;-6.89;68.47;95839.91;5073330;28;20230;-75
2022/01/25 08:07:20;;;;;;;14.00;5.28;;;;;;;-6.82;69.12;95842.56;5073206;28;20214;-74
2022/01/25 08:09:49;;;;;;;13.13;3.70;;;;;;;-6.84;69.47;95844.63;5073450;28;20217;-75
2022/01/25 08:12:15;;;;;;;9.05;5.05;;;;;;;-6.42;68.40;95842.91;5080902;28;20238;-74
2022/01/25 08:14:44;;;;;;;16.65;7.57;;;;;;;-7.09;69.90;95836.25;5092765;28;20198;-73
2022/01/25 08:17:11;;;;;;;10.13;5.70;;;;;;;-7.09;70.42;95840.72;5084680;28;20246;-74
2022/01/25 08:19:38;;;;;;;13.07;6.82;;;;;;;-6.87;69.23;95837.09;5073344;28;20282;-75
2022/01/25 08:22:07;;;;;;;8.73;4.50;;;;;;;-6.54;69.30;95834.69;5072700;28;20230;-76
2022/01/25 08:24:34;;;;;;;10.95;6.47;;;;;;;-6.54;69.00;95832.88;5072822;28;20644;-76
2022/01/25 08:27:00;;;;;;;7.60;4.30;;;;;;;-6.57;68.59;95835.91;5073513;28;20207;-76
2022/01/25 08:29:27;;;;;;;14.30;6.82;;;;;;;-7.05;69.40;95836.72;5073172;28;20597;-74
2022/01/25 08:31:54;;;;;;;8.55;4.45;;;;;;;-6.94;69.77;95828.31;5072507;28;20226;-74
2022/01/25 08:34:21;;;;;;;12.32;6.10;;;;;;;-6.86;69.21;95834.25;5072963;28;20234;-75
2022/01/25 08:36:49;;;;;;;13.23;6.68;;;;;;;-6.89;69.18;95831.19;5072090;28;20230;-75
2022/01/25 08:39:17;;;;;;;15.50;7.68;;;;;;;-7.06;69.38;95835.06;5072122;28;20227;-74
2022/01/25 08:41:44;;;;;;;19.38;6.70;;;;;;;-7.26;69.90;95819.94;5071177;28;20733;-75
2022/01/25 08:44:11;;;;;;;13.73;6.88;;;;;;;-7.20;69.64;95824.44;5072184;28;20214;-75
2022/01/25 08:46:39;;;;;;;17.38;5.60;;;;;;;-6.87;69.08;95830.00;5071843;28;20688;-76
2022/01/25 08:49:06;;;;;;;9.68;5.43;;;;;;;-6.97;68.54;95812.91;5072969;28;20288;-76
2022/01/25 08:51:33;;;;;;;9.45;5.25;;;;;;;-7.12;68.76;95827.94;5072672;28;20210;-76
2022/01/25 08:54:00;;;;;;;11.43;4.90;;;;;;;-7.01;68.83;95816.91;5072416;28;20234;-76
2022/01/25 08:56:28;;;;;;;11.98;5.30;;;;;;;-7.24;68.20;95801.28;5071458;28;20215;-77
2022/01/25 08:58:55;;;;;;;8.95;4.65;;;;;;;-6.80;67.61;95819.50;5072472;28;20206;-76
2022/01/25 09:01:22;;;;;;;12.73;5.45;;;;;;;-6.81;68.05;95825.78;5074968;28;20234;-76
2022/01/25 09:03:49;;;;;;;15.73;5.50;;;;;;;-6.74;67.32;95817.94;5072597;28;20666;-77
2022/01/25 09:06:18;;;;;;;16.92;7.05;;;;;;;-6.68;67.63;95817.97;5072483;28;20227;-75
2022/01/25 09:08:45;;;;;;;17.00;6.72;;;;;;;-6.59;66.53;95806.31;5074164;28;20210;-79
2022/01/25 09:11:12;;;;;;;15.23;7.80;;;;;;;-6.89;66.97;95815.38;5077597;28;20564;-75
2022/01/25 09:13:41;;;;;;;13.52;4.53;;;;;;;-6.80;67.58;95798.44;5079933;28;20210;-75
2022/01/25 09:16:08;;;;;;;7.85;4.05;;;;;;;-6.74;68.02;95784.50;5076387;28;20231;-76
2022/01/25 09:18:36;;;;;;;10.52;4.75;;;;;;;-6.57;66.63;95785.84;5072696;28;20234;-76
2022/01/25 09:21:03;;;;;;;10.13;4.35;;;;;;;-6.56;67.39;95786.66;5085448;28;20234;-77
2022/01/25 09:23:30;;;;;;;15.20;6.45;;;;;;;-6.61;67.60;95776.69;5071622;28;20264;-77
2022/01/25 09:25:57;;;;;;;14.40;6.05;;;;;;;-6.51;65.67;95779.78;5085415;28;20213;-76
2022/01/25 09:28:24;;;;;;;11.30;4.82;;;;;;;-6.17;66.23;95783.44;5085935;28;20670;-76
2022/01/25 09:30:52;;;;;;;11.30;5.07;;;;;;;-6.20;65.96;95781.19;5072109;28;20213;-76
2022/01/25 09:33:19;;;;;;;13.70;6.53;;;;;;;-6.42;66.37;95784.94;5084710;28;20642;-76
2022/01/25 09:35:46;;;;;;;7.55;3.28;;;;;;;-6.33;66.00;95771.41;5072131;28;20207;-76
2022/01/25 09:38:12;;;;;;;11.20;5.50;;;;;;;-6.20;65.12;95770.66;5072205;28;20230;-77
2022/01/25 09:40:40;;;;;;;8.40;5.05;;;;;;;-6.39;66.05;95780.06;5072012;28;20235;-75
2022/01/25 09:43:08;;;;;;;6.82;3.35;;;;;;;-6.06;66.50;95780.25;5071838;28;20242;-75
2022/01/25 09:45:36;;;;;;;9.32;4.55;;;;;;;-5.88;65.94;95767.31;5073280;28;20241;-76
2022/01/25 09:48:06;;;;;;;16.27;6.25;;;;;;;-5.98;65.47;95772.16;5082945;28;20226;-76
2022/01/25 09:50:33;;;;;;;14.35;5.30;;;;;;;-5.99;65.69;95765.25;5071692;28;20207;-78
2022/01/25 09:53:00;;;;;;;14.40;5.63;;;;;;;-6.27;66.26;95761.88;5071440;28;20226;-76
2022/01/25 09:55:31;;;;;;;10.77;5.93;;;;;;;-6.26;65.52;95759.03;5073803;28;20207;-77
2022/01/25 09:57:58;;;;;;;13.68;5.30;;;;;;;-6.13;65.11;95751.19;5081629;28;20592;-78
2022/01/25 10:00:28;;;;;;;12.32;4.60;;;;;;;-6.12;66.31;95746.75;5071619;28;20206;-77
2022/01/25 10:03:03;;;;;;;12.10;5.28;;;;;;;-6.27;66.89;95738.16;5069760;28;20233;-77
2022/01/25 10:05:35;;;;;;;4.47;3.22;;;;;;;-5.86;66.69;95749.44;5071170;28;20282;-75
2022/01/25 10:08:05;;;;;;;12.80;6.30;;;;;;;-6.21;66.24;95755.84;5068191;28;20199;-75
2022/01/25 10:10:33;;;;;;;15.13;6.60;;;;;;;-6.60;67.18;95746.72;5070364;28;20188;-77
2022/01/25 10:13:23;;;;;;;16.52;6.70;;;;;;;-6.40;67.17;95748.63;5068848;28;20203;-77
2022/01/25 10:15:52;;;;;;;7.22;3.35;;;;;;;-6.15;67.71;95739.25;5069560;28;20210;-76
2022/01/25 10:18:19;;;;;;;9.30;4.68;;;;;;;-5.95;66.49;95729.56;5069791;28;20291;-76
2022/01/25 10:20:49;;;;;;;12.77;5.68;;;;;;;-5.93;66.32;95727.56;5070243;28;20199;-78
2022/01/25 10:23:19;;;;;;;16.67;7.43;;;;;;;-6.05;66.17;95713.31;5069177;28;20562;-79
2022/01/25 10:25:48;;;;;;;17.33;7.22;;;;;;;-5.75;65.77;95719.06;5069418;28;20278;-76
2022/01/25 10:28:16;;;;;;;6.18;3.72;;;;;;;-5.52;66.50;95724.78;5069626;28;20203;-76
2022/01/25 10:30:49;;;;;;;6.90;3.92;;;;;;;-5.58;65.47;95724.75;5071117;28;20238;-76
2022/01/25 10:33:27;;;;;;;14.13;5.10;;;;;;;-5.57;65.98;95721.09;5058153;28;20203;-78
2022/01/25 10:35:57;;;;;;;16.48;6.85;;;;;;;-5.91;67.49;95714.16;5070565;28;20227;-76
2022/01/25 10:38:27;;;;;;;16.00;6.50;;;;;;;-5.76;66.77;95709.50;5071289;28;20215;-75
2022/01/25 10:40:57;;;;;;;17.40;7.97;;;;;;;-5.74;66.75;95705.63;5070959;28;20226;-77
2022/01/25 10:43:25;;;;;;;9.70;5.60;;;;;;;-5.78;67.74;95701.81;5071087;28;20230;-75
2022/01/25 10:46:14;;;;;;;15.63;7.47;;;;;;;-5.94;67.20;95709.28;5070658;28;20219;-77
2022/01/25 10:48:44;;;;;;;10.65;5.97;;;;;;;-5.93;67.20;95692.44;5066830;28;20264;-76
2022/01/25 10:51:14;;;;;;;11.15;5.28;;;;;;;-5.80;67.72;95703.81;5066293;28;20207;-79
2022/01/25 10:53:42;;;;;;;17.90;7.65;;;;;;;-5.63;66.84;95696.34;5064598;28;20261;-75
2022/01/25 10:56:10;;;;;;;11.82;5.25;;;;;;;-5.64;67.32;95678.88;5070241;28;20210;-76
2022/01/25 10:58:39;;;;;;;9.52;4.55;;;;;;;-5.42;67.26;95692.69;5069373;28;20225;-76
2022/01/25 11:01:08;;;;;;;11.75;5.25;;;;;;;-5.24;67.20;95679.72;5062050;28;20668;-74
2022/01/25 11:03:36;;;;;;;11.07;5.75;;;;;;;-5.29;66.00;95682.16;5074397;28;20663;-75
2022/01/25 11:06:19;;;;;;;13.38;7.00;;;;;;;-5.18;66.79;95678.06;5073897;28;20199;-75
2022/01/25 11:08:47;;;;;;;17.42;6.18;;;;;;;-5.18;66.76;95678.88;5075095;28;20260;-76
2022/01/25 11:11:24;;;;;;;12.43;7.13;;;;;;;-5.45;67.18;95666.69;5074815;28;20221;-75
2022/01/25 11:13:53;;;;;;;19.38;8.80;;;;;;;-5.73;67.33;95664.25;5061558;28;20214;-75
2022/01/25 11:16:20;;;;;;;10.45;5.57;;;;;;;-5.53;68.03;95680.13;5070905;28;20414;-77
2022/01/25 11:18:47;;;;;;;16.00;6.70;;;;;;;-5.47;67.09;95672.22;5070345;28;20249;-78
2022/01/25 11:21:14;;;;;;;22.65;7.53;;;;;;;-5.27;67.51;95668.75;5071854;28;20822;-74
2022/01/25 11:23:44;;;;;;;18.02;7.57;;;;;;;-5.47;66.50;95664.28;5073570;28;20266;-76
2022/01/25 11:26:13;;;;;;;15.45;6.43;;;;;;;-5.52;67.47;95660.63;5072796;28;20191;-73
2022/01/25 11:28:41;;;;;;;9.80;4.65;;;;;;;-5.03;67.29;95649.63;5073819;28;20203;-74
2022/01/25 11:31:11;;;;;;;15.23;7.28;;;;;;;-4.95;66.11;95635.41;5073766;28;20645;-73
2022/01/25 11:33:44;;;;;;;17.13;7.40;;;;;;;-5.04;65.78;95643.53;5074225;28;20210;-75
2022/01/25 11:36:12;;;;;;;18.88;7.28;;;;;;;-5.08;66.17;95644.97;5074010;28;20245;-75
2022/01/25 11:38:43;;;;;;;15.23;6.82;;;;;;;-4.95;65.70;95635.41;5074130;28;20288;-75
2022/01/25 11:41:12;;;;;;;10.43;5.55;;;;;;;-4.63;64.95;95608.06;5074259;28;20195;-73
2022/01/25 11:43:44;;;;;;;17.50;7.07;;;;;;;-4.89;65.43;95619.53;5074147;28;20223;-75
2022/01/25 11:46:12;;;;;;;18.40;7.82;;;;;;;-5.43;66.39;95611.88;5072562;28;20593;-76
2022/01/25 11:48:43;;;;;;;17.85;9.68;;;;;;;-5.58;67.20;95609.47;5073746;28;20581;-76
2022/01/25 11:51:15;;;;;;;5.38;3.25;;;;;;;-5.17;67.92;95621.59;5073538;28;20246;-75
2022/01/25 11:53:44;;;;;;;16.48;7.43;;;;;;;-5.46;67.80;95601.72;5084246;28;20210;-76
2022/01/25 11:56:13;;;;;;;14.68;7.32;;;;;;;-5.21;67.30;95615.94;5072393;28;20203;-75
2022/01/25 11:58:41;;;;;;;20.80;6.18;;;;;;;-4.81;66.98;95600.00;5070878;28;20234;-75
2022/01/25 12:01:19;;;;;;;13.40;6.60;;;;;;;-4.71;65.76;95595.09;5072688;28;20310;-75
2022/01/25 12:03:47;;;;;;;16.23;6.80;;;;;;;-5.03;66.14;95597.59;5073877;28;20215;-74
2022/01/25 12:06:21;;;;;;;14.32;7.47;;;;;;;-5.09;66.75;95603.75;5073662;28;20206;-75
2022/01/25 12:09:10;;;;;;;14.98;6.50;;;;;;;-5.09;66.32;95609.03;5073646;28;20191;-74
2022/01/25 12:11:44;;;;;;;15.57;5.13;;;;;;;-5.02;66.30;95596.59;5073843;28;20198;-75
2022/01/25 12:14:23;;;;;;;11.52;5.32;;;;;;;-4.87;66.66;95590.25;5073324;28;20614;-75
2022/01/25 12:16:53;;;;;;;20.00;8.05;;;;;;;-4.73;65.72;95586.56;5073412;28;20219;-76
2022/01/25 12:19:22;;;;;;;14.20;6.22;;;;;;;-4.56;66.21;95577.13;5073116;28;20245;-75
2022/01/25 12:22:01;;;;;;;8.88;4.90;;;;;;;-4.38;64.19;95577.28;5073589;28;20195;-75
2022/01/25 12:24:34;;;;;;;11.00;5.43;;;;;;;-4.26;64.22;95576.59;5072869;28;20218;-75
2022/01/25 12:27:08;;;;;;;10.52;4.88;;;;;;;-4.33;64.87;95572.13;5073462;28;20237;-74
2022/01/25 12:29:41;;;;;;;14.18;6.15;;;;;;;-4.56;64.76;95571.84;5072589;28;20215;-75
2022/01/25 12:32:20;;;;;;;10.02;4.47;;;;;;;-4.73;65.49;95578.63;5072594;28;20191;-76
2022/01/25 12:35:07;;;;;;;7.28;3.88;;;;;;;-4.66;66.21;95571.50;5073222;28;20293;-75